MST,Max TemperatureF,Mean TemperatureF,Min TemperatureF,Max Dew PointF,MeanDew PointF,Min DewpointF,Max Humidity, Mean Humidity, Min Humidity, Max Sea Level PressureIn, Mean Sea Level PressureIn, Min Sea Level PressureIn, Max VisibilityMiles, Mean VisibilityMiles, Min VisibilityMiles, Max Wind SpeedMPH, Mean Wind SpeedMPH, Max Gust SpeedMPH,PrecipitationIn, CloudCover, Events, WindDirDegrees
2013-1-1,27,12,-4,16,3,-8,92,79,56,30.41,30.23,30.09,10,8,2,8,1,,0.00,4,Snow,26
2013-1-2,27,9,-9,11,-1,-15,91,73,49,30.47,30.37,30.26,10,10,9,7,3,,0.00,0,,198
2013-1-3,25,6,-13,9,-4,-18,87,72,48,30.56,30.44,30.34,10,10,8,10,2,,0.00,0,,91
2013-1-4,32,10,-13,6,-5,-18,82,62,28,30.59,30.43,30.31,10,10,10,7,1,,0.00,0,,223
2013-1-5,37,14,-9,10,-1,-14,87,64,29,30.56,30.46,30.37,10,10,9,7,1,,0.00,0,,170
2013-1-6,39,16,-6,11,2,-11,84,64,23,30.52,30.31,30.11,10,10,10,4,0,,0.00,0,,130
2013-1-7,42,24,5,14,7,2,87,65,30,30.14,30.06,29.96,10,10,6,10,1,,0.00,0,,106
2013-1-8,41,20,-2,18,7,-7,88,65,34,30.36,30.20,30.03,10,10,10,10,2,,0.00,0,,344
2013-1-9,46,24,3,18,10,-1,88,67,25,30.54,30.35,30.17,10,10,8,10,2,,0.00,0,,112
2013-1-10,42,24,7,24,13,5,92,63,35,30.13,29.91,29.58,10,10,5,22,4,38,0.00,2,Snow,204
2013-1-11,30,12,-7,27,10,-12,93,73,32,30.03,29.75,29.51,10,6,0,22,15,36,0.07,4,Fog-Snow,243
2013-1-12,18,0,-17,-1,-11,-22,83,66,36,30.22,30.11,30.02,10,10,10,9,1,,0.00,3,,266
2013-1-13,19,3,-13,1,-7,-17,83,64,36,30.24,30.10,29.98,10,10,8,14,2,,0.00,2,,231
2013-1-14,17,3,-11,10,0,-15,86,77,58,30.32,30.03,29.89,10,6,0,9,1,,0.05,6,Snow,28
2013-1-15,21,0,-20,-1,-11,-26,86,62,35,30.61,30.46,30.30,10,10,10,12,2,,0.00,0,,3
2013-1-16,33,14,-5,10,0,-10,84,62,37,30.62,30.52,30.41,10,10,10,10,1,,0.00,0,,176
2013-1-17,37,16,-4,14,5,-8,87,67,38,30.65,30.54,30.44,10,10,9,9,1,,0.00,0,,147
2013-1-18,44,22,1,19,9,-4,92,69,35,30.56,30.43,30.31,10,10,10,10,1,,0.00,0,,144
2013-1-19,45,22,0,16,8,-4,92,68,26,30.55,30.44,30.35,10,10,10,9,1,,0.00,0,,121
2013-1-20,48,26,3,16,9,-1,88,66,24,30.48,30.37,30.24,10,10,10,9,1,,0.00,0,,127
2013-1-21,48,24,0,16,8,-4,88,63,24,30.47,30.37,30.28,10,10,10,10,1,,0.00,0,,134
2013-1-22,52,29,6,19,12,2,88,63,26,30.48,30.38,30.28,10,10,10,7,0,,0.00,0,,149
2013-1-23,55,32,9,22,15,5,88,62,23,30.51,30.38,30.28,10,10,10,9,1,,0.00,0,,82
2013-1-24,45,32,19,34,26,17,89,75,46,30.36,30.30,30.25,10,10,10,12,2,18,0.00,4,Rain,220
2013-1-25,44,39,34,39,36,33,100,92,81,30.28,30.19,30.13,10,7,0,4,0,,0.00,8,Fog-Rain,40
2013-1-26,43,38,33,41,36,33,100,96,81,30.20,30.00,29.81,10,4,0,17,2,28,0.70,8,Fog-Rain,207
2013-1-27,46,42,37,39,36,34,100,88,68,30.01,29.91,29.78,10,9,2,16,8,22,0.12,8,Rain,216
2013-1-28,37,29,21,34,28,18,100,86,67,29.86,29.80,29.69,10,5,0,28,13,39,0.35,7,Fog-Rain-Snow,227
2013-1-29,25,20,15,18,14,7,93,78,55,30.08,29.87,29.75,10,7,1,16,6,26,0.03,5,Snow,292
2013-1-30,34,22,10,21,14,6,88,72,49,30.30,30.22,30.05,10,10,2,14,7,21,0.01,1,Snow,262
2013-1-31,39,27,15,24,19,13,91,81,49,30.37,30.29,30.25,10,10,10,9,1,,0.00,0,,285